Etusivu
METAR-TAF:

METAR-TAF

Lentoasemat :

Kuwait, Kuwait

Kuwaitin kansainvälinen lentoasema

Leveyspiiri: 29-13N, Pituuspiiri: 047-59E, korkeus merenpinnasta: 55 m

Tämänhetkinen sää

Tämä raportti tehtiin 21 minuuttia sitten, kello 11.00 UTC
Tuuli 11 kn pohjoisesta
Lämpötila 23°C
Kosteus 25%
Ilmanpaine 1015 hPa
Näkyvyys 10 km tai enemmän
ei pilviä alle 1500 m:ssä eikä cumulonimbus-pilviä

METAR: OKBK 231100Z 35011KT CAVOK 23/02 Q1015 NOSIG

Aika: 14:21 (11:21 UTC)

Sääennuste

Tämä raportti tehtiin 6 tuntia ja 36 minuuttia sitten, kello 04.45 UTC
Ennuste voimassa 23. päivästä klo 06 UTC - 24. päivään klo 12 UTC
Tuuli 8 kn luoteesta puuskistuen 18 kn:hen
Näkyvyys: 7000 m

TAF: OKBK 230445Z 2306/2412 32008G18KT 7000 NSC

Säähavainnot ja -ennusteet yli 4000 lentoasemalta (METAR- ja TAF-raportit).

Käytössä olevat sääasemat on merkitty karttaan keltaisilla ja punaisilla pisteillä.

Aseta hiiri pisteen päälle nähdäksesi sääaseman nimen.

Klikkaa sitten nähdäksesi säähavainnot ja -ennusteet.

Kartan vaihtaminen: klikkaa mustalla rastilla varustettuja vihreitä pisteitä, niin voit zoomata sisään; viivalla varustettua vihreää pistettä, niin voit zoomata ulos tai vihreitä nuolia, niin pääset viereisille kartoille.


METAR-TAF: